Time;durP1;ratioP1;P1;durP2;ratioP2;P2;SDS_P1;SDS_P2;PMS_P1;PMS_P2;Temp;Humidity;BMP_temperature;BMP_pressure;BME280_temperature;BME280_humidity;BME280_pressure;Samples;Min_cycle;Max_cycle;Signal;HPM_P1;HPM_P2
2023/03/11 00:00:38;;;;;;;4.90;1.60;;;;;;;5.15;49.18;95059.84;5025381;28;20485;-69
2023/03/11 00:03:06;;;;;;;1.80;1.40;;;;;;;5.20;48.69;95042.25;5029055;28;21266;-70
2023/03/11 00:05:38;;;;;;;1.53;1.20;;;;;;;5.34;47.91;95041.66;5019187;28;20449;-69
2023/03/11 00:08:06;;;;;;;3.27;1.60;;;;;;;5.30;48.45;95050.50;5026684;28;20465;-68
2023/03/11 00:10:37;;;;;;;2.43;1.90;;;;;;;5.34;47.70;95078.06;5020602;28;20438;-68
2023/03/11 00:13:04;;;;;;;1.50;1.13;;;;;;;5.35;47.26;95068.50;5029170;28;20483;-69
2023/03/11 00:15:30;;;;;;;1.20;1.10;;;;;;;5.18;47.01;95067.50;5024566;28;20452;-68
2023/03/11 00:17:57;;;;;;;1.90;1.40;;;;;;;4.84;47.64;95060.31;5027805;28;21205;-69
2023/03/11 00:20:31;;;;;;;1.67;1.57;;;;;;;5.04;47.77;95069.84;5020133;28;20207;-69
2023/03/11 00:22:58;;;;;;;4.50;1.37;;;;;;;5.19;46.50;95073.53;5019305;28;20468;-69
2023/03/11 00:25:26;;;;;;;1.17;1.07;;;;;;;4.93;47.31;95070.31;5019988;28;20437;-69
2023/03/11 00:27:52;;;;;;;1.83;1.27;;;;;;;4.68;47.59;95073.13;5024338;28;20488;-69
2023/03/11 00:30:18;;;;;;;1.30;1.20;;;;;;;4.99;47.38;95082.22;5021558;28;20475;-69
2023/03/11 00:32:47;;;;;;;1.57;1.10;;;;;;;5.08;46.36;95087.84;5018998;28;20200;-70
2023/03/11 00:35:16;;;;;;;1.60;1.40;;;;;;;5.22;45.76;95076.84;5022566;28;20433;-70
2023/03/11 00:37:44;;;;;;;1.93;1.50;;;;;;;4.97;46.33;95079.66;5018460;28;20521;-70
2023/03/11 00:40:13;;;;;;;2.30;1.43;;;;;;;4.83;46.53;95077.66;5020921;28;20518;-69
2023/03/11 00:42:38;;;;;;;2.20;1.40;;;;;;;4.83;46.74;95085.44;5024181;28;20431;-69
2023/03/11 00:45:04;;;;;;;1.20;1.03;;;;;;;4.87;46.45;95084.41;5015651;28;20444;-70
2023/03/11 00:47:30;;;;;;;1.73;1.33;;;;;;;4.94;45.86;95085.00;5017784;28;20664;-69
2023/03/11 00:49:55;;;;;;;1.40;1.00;;;;;;;4.87;46.23;95089.63;5020153;28;20680;-70
2023/03/11 00:52:20;;;;;;;1.30;1.20;;;;;;;4.78;45.87;95100.41;5026829;28;20191;-69
2023/03/11 00:54:46;;;;;;;2.33;1.33;;;;;;;4.75;46.58;95090.16;5020192;28;20210;-69
2023/03/11 00:57:11;;;;;;;2.13;1.23;;;;;;;4.80;45.68;95083.00;5025300;28;20266;-70
2023/03/11 00:59:37;;;;;;;1.23;1.13;;;;;;;4.68;45.87;95086.13;5028735;28;20637;-69
2023/03/11 01:02:02;;;;;;;1.30;1.20;;;;;;;4.74;46.28;95090.19;5025712;28;20184;-69
2023/03/11 01:04:28;;;;;;;1.67;1.10;;;;;;;4.87;45.71;95094.81;5016755;28;20271;-70
2023/03/11 01:06:53;;;;;;;2.57;1.20;;;;;;;4.81;45.59;95095.06;5022761;28;20191;-68
2023/03/11 01:09:19;;;;;;;1.47;1.20;;;;;;;4.84;45.69;95087.16;5017740;28;21009;-69
2023/03/11 01:11:44;;;;;;;1.43;1.33;;;;;;;4.84;45.71;95081.97;5026763;28;20183;-69
2023/03/11 01:14:10;;;;;;;1.87;1.23;;;;;;;4.72;45.82;95079.03;5015834;28;20207;-69
2023/03/11 01:16:35;;;;;;;1.63;1.40;;;;;;;4.56;46.37;95076.22;5016413;28;20188;-69
2023/03/11 01:19:01;;;;;;;1.33;1.10;;;;;;;4.56;46.06;95082.28;5020445;28;20677;-69
2023/03/11 01:21:26;;;;;;;3.00;1.57;;;;;;;4.35;46.22;95096.16;5027179;28;20176;-69
2023/03/11 01:23:52;;;;;;;1.50;1.27;;;;;;;4.50;46.48;95079.06;5016662;28;20216;-69
2023/03/11 01:26:17;;;;;;;1.80;1.00;;;;;;;4.71;46.33;95065.19;5024352;28;20679;-69
2023/03/11 01:28:43;;;;;;;2.23;1.20;;;;;;;4.65;46.03;95079.28;5009684;28;20204;-69
2023/03/11 01:31:11;;;;;;;2.37;1.40;;;;;;;4.52;46.81;95078.09;5034749;28;20295;-69
2023/03/11 01:33:36;;;;;;;2.10;1.33;;;;;;;4.49;46.93;95078.25;5025613;28;20715;-70
2023/03/11 01:36:02;;;;;;;1.33;1.23;;;;;;;4.61;46.92;95062.13;5025992;28;20465;-69
2023/03/11 01:38:27;;;;;;;1.53;1.30;;;;;;;4.60;46.79;95055.22;5015612;28;20176;-69
2023/03/11 01:40:53;;;;;;;1.50;1.27;;;;;;;4.29;47.04;95052.22;5035829;28;20556;-69
2023/03/11 01:43:39;;;;;;;1.73;1.30;;;;;;;4.34;47.11;95064.09;5017529;28;20203;-68
2023/03/11 01:46:07;;;;;;;2.40;1.20;;;;;;;4.42;46.90;95076.81;5025273;28;20227;-69
2023/03/11 01:48:33;;;;;;;1.63;1.17;;;;;;;4.31;46.80;95072.03;5015755;28;20473;-69
2023/03/11 01:50:59;;;;;;;1.90;1.70;;;;;;;4.53;47.13;95084.13;5028939;28;20508;-68
2023/03/11 01:53:24;;;;;;;1.30;1.20;;;;;;;4.41;47.00;95070.75;5011159;28;20258;-69
2023/03/11 01:55:50;;;;;;;1.87;1.30;;;;;;;4.48;46.88;95084.31;5026872;28;20656;-69
2023/03/11 01:58:21;;;;;;;1.23;1.13;;;;;;;4.55;46.50;95088.34;5014659;28;20189;-69
2023/03/11 02:00:47;;;;;;;2.17;1.27;;;;;;;4.40;47.08;95089.84;5022016;28;20242;-68
2023/03/11 02:03:35;;;;;;;2.30;1.20;;;;;;;4.60;46.86;95080.38;5009593;28;20466;-68
2023/03/11 02:06:05;;;;;;;1.53;1.23;;;;;;;4.34;47.25;95071.06;5026635;28;20180;-68
2023/03/11 02:08:33;;;;;;;3.10;1.40;;;;;;;4.52;46.37;95091.09;5020391;28;21009;-68
2023/03/11 02:11:01;;;;;;;1.47;1.37;;;;;;;4.70;46.29;95079.09;5028502;28;20434;-68
2023/03/11 02:13:27;;;;;;;3.73;1.50;;;;;;;4.64;45.97;95082.78;5015975;28;20442;-68
2023/03/11 02:15:52;;;;;;;5.83;1.47;;;;;;;4.75;46.56;95084.94;5029203;28;20851;-69
2023/03/11 02:18:19;;;;;;;1.87;1.43;;;;;;;4.76;46.67;95078.00;5028405;28;20433;-69
2023/03/11 02:20:54;;;;;;;1.83;1.27;;;;;;;4.58;46.60;95061.41;5029861;28;20744;-69
2023/03/11 02:23:26;;;;;;;1.10;1.00;;;;;;;4.43;47.14;95045.56;5024466;28;21373;-69
2023/03/11 02:26:09;;;;;;;1.30;1.13;;;;;;;4.57;47.30;95070.13;5030347;28;20442;-68
2023/03/11 02:28:37;;;;;;;1.93;1.10;;;;;;;4.51;46.78;95072.97;5024361;28;20465;-68
2023/03/11 02:31:04;;;;;;;1.60;1.10;;;;;;;4.60;46.87;95082.97;5026715;28;20446;-70
2023/03/11 02:33:31;;;;;;;1.30;1.20;;;;;;;4.72;46.54;95079.03;5015535;28;20546;-67
2023/03/11 02:35:57;;;;;;;1.90;1.30;;;;;;;4.73;46.94;95071.16;5009465;28;20438;-68
2023/03/11 02:38:23;;;;;;;3.50;1.30;;;;;;;4.56;47.71;95094.41;5019609;28;20762;-69
2023/03/11 02:40:56;;;;;;;2.50;1.60;;;;;;;4.69;47.42;95084.34;5022530;28;20698;-68
2023/03/11 02:43:32;;;;;;;1.60;1.33;;;;;;;4.74;46.77;95098.81;5025979;28;20203;-69
2023/03/11 02:45:58;;;;;;;1.63;1.20;;;;;;;4.68;46.92;95096.50;5014915;28;20457;-68
2023/03/11 02:48:25;;;;;;;1.70;1.50;;;;;;;4.85;46.85;95099.22;5021312;28;20461;-69
2023/03/11 02:50:51;;;;;;;1.57;1.40;;;;;;;4.84;46.82;95096.69;5019975;28;20445;-68
2023/03/11 02:53:16;;;;;;;2.07;1.27;;;;;;;4.71;46.83;95111.97;5027386;28;20473;-70
2023/03/11 02:55:42;;;;;;;2.20;1.40;;;;;;;4.85;46.82;95104.44;5025282;28;20764;-69
2023/03/11 02:58:07;;;;;;;1.90;1.43;;;;;;;4.53;47.31;95110.13;5018951;28;20175;-69
2023/03/11 03:00:33;;;;;;;2.47;1.30;;;;;;;4.63;47.46;95099.28;5024758;28;20326;-68
2023/03/11 03:02:59;;;;;;;2.00;1.73;;;;;;;4.65;47.73;95115.66;5026133;28;20200;-69
2023/03/11 03:05:24;;;;;;;1.53;1.40;;;;;;;4.63;47.74;95112.28;5022913;28;20229;-69
2023/03/11 03:07:50;;;;;;;2.30;1.90;;;;;;;4.74;47.99;95122.22;5015805;28;20218;-70
2023/03/11 03:10:18;;;;;;;4.50;2.10;;;;;;;4.66;47.83;95104.34;5019774;28;20180;-70
2023/03/11 03:12:43;;;;;;;3.73;1.70;;;;;;;4.66;47.37;95125.16;5021616;28;20433;-67
2023/03/11 03:15:10;;;;;;;3.33;1.50;;;;;;;4.76;47.51;95114.38;5021107;28;21281;-68
2023/03/11 03:17:36;;;;;;;3.57;1.53;;;;;;;4.33;48.40;95101.38;5012233;28;21074;-69
2023/03/11 03:20:04;;;;;;;2.87;1.67;;;;;;;4.42;47.88;95118.38;5016772;28;20497;-69
2023/03/11 03:22:30;;;;;;;2.10;1.20;;;;;;;4.47;47.72;95115.59;5030739;28;20183;-69
2023/03/11 03:24:55;;;;;;;1.63;1.53;;;;;;;4.56;47.09;95116.03;5018001;28;20544;-69
2023/03/11 03:27:21;;;;;;;3.17;1.67;;;;;;;4.61;46.77;95114.09;5013454;28;20192;-67
2023/03/11 03:29:46;;;;;;;1.57;1.47;;;;;;;4.60;47.25;95124.53;5023324;28;20230;-69
2023/03/11 03:32:12;;;;;;;3.17;1.67;;;;;;;4.55;47.70;95158.50;5018131;28;20371;-68
2023/03/11 03:34:37;;;;;;;3.23;1.67;;;;;;;4.41;47.79;95151.25;5015055;28;20195;-67
2023/03/11 03:37:02;;;;;;;1.97;1.70;;;;;;;4.48;48.70;95148.44;5018053;28;20179;-67
2023/03/11 03:39:28;;;;;;;2.10;1.70;;;;;;;4.08;49.42;95144.81;5026795;28;20184;-70
2023/03/11 03:41:53;;;;;;;2.33;1.70;;;;;;;4.03;50.16;95127.66;5029098;28;20193;-68
2023/03/11 03:44:19;;;;;;;2.70;1.80;;;;;;;4.32;49.47;95140.41;5027585;28;20203;-68
2023/03/11 03:46:44;;;;;;;2.27;1.70;;;;;;;4.38;49.43;95130.63;5026805;28;20369;-69
2023/03/11 03:49:10;;;;;;;1.47;1.33;;;;;;;4.37;49.32;95147.13;5026399;28;20207;-69
2023/03/11 03:51:35;;;;;;;1.70;1.60;;;;;;;4.36;49.26;95135.03;5027597;28;20178;-68
2023/03/11 03:54:01;;;;;;;1.87;1.50;;;;;;;4.40;48.59;95136.59;5026026;28;20226;-68
2023/03/11 03:56:26;;;;;;;2.40;1.60;;;;;;;4.53;48.27;95151.69;5025840;28;20183;-68
2023/03/11 03:58:53;;;;;;;1.80;1.40;;;;;;;4.32;48.23;95156.81;5028812;28;20191;-68
2023/03/11 04:01:18;;;;;;;3.60;1.80;;;;;;;4.36;48.56;95157.56;5025639;28;20180;-71
2023/03/11 04:03:44;;;;;;;2.90;1.70;;;;;;;4.25;48.18;95155.38;5025251;28;21199;-69
2023/03/11 04:06:18;;;;;;;2.57;1.50;;;;;;;4.32;48.50;95154.22;5023705;28;20185;-70
2023/03/11 04:08:44;;;;;;;1.50;1.40;;;;;;;4.31;47.93;95156.91;5027390;28;20234;-68
2023/03/11 04:11:09;;;;;;;3.33;1.90;;;;;;;4.32;47.70;95164.59;5025511;28;20465;-70
2023/03/11 04:13:35;;;;;;;2.80;1.43;;;;;;;4.15;48.39;95165.25;5025498;28;20212;-68
2023/03/11 04:16:05;;;;;;;4.10;1.60;;;;;;;4.30;47.42;95169.03;5024727;28;20191;-69
2023/03/11 04:18:31;;;;;;;1.63;1.50;;;;;;;4.42;46.14;95168.56;5025195;28;20187;-70
2023/03/11 04:20:56;;;;;;;3.00;1.33;;;;;;;4.31;46.37;95183.72;5022850;28;20468;-70
2023/03/11 04:23:22;;;;;;;1.60;1.40;;;;;;;4.21;45.68;95183.22;5025325;28;20293;-70
2023/03/11 04:25:47;;;;;;;2.83;1.60;;;;;;;4.19;46.08;95185.03;5022880;28;20185;-68
2023/03/11 04:28:13;;;;;;;1.60;1.50;;;;;;;4.00;46.57;95190.06;5027082;28;20288;-68
2023/03/11 04:30:39;;;;;;;1.60;1.20;;;;;;;3.98;46.69;95193.63;5024260;28;20179;-69
2023/03/11 04:33:04;;;;;;;14.13;1.80;;;;;;;3.89;46.21;95191.38;5024956;28;20210;-69
2023/03/11 04:35:30;;;;;;;4.13;1.67;;;;;;;3.98;45.47;95202.25;5023993;28;20427;-67
2023/03/11 04:37:55;;;;;;;6.13;1.30;;;;;;;3.99;45.77;95197.91;5025654;28;20180;-69
2023/03/11 04:40:21;;;;;;;2.40;1.50;;;;;;;3.83;45.60;95197.66;5025144;28;20182;-70
2023/03/11 04:42:46;;;;;;;3.70;1.20;;;;;;;3.87;45.29;95200.97;5025826;28;20252;-68
2023/03/11 04:45:12;;;;;;;5.90;1.40;;;;;;;3.94;44.78;95198.06;5021537;28;20282;-72
2023/03/11 04:47:37;;;;;;;4.00;1.83;;;;;;;3.88;45.61;95206.09;5025661;28;20183;-69
2023/03/11 04:50:03;;;;;;;2.27;1.43;;;;;;;3.82;45.13;95199.38;5027540;28;20199;-69
2023/03/11 04:52:29;;;;;;;1.97;1.53;;;;;;;3.72;45.47;95208.41;5020419;28;20164;-69
2023/03/11 04:54:54;;;;;;;10.80;3.90;;;;;;;3.66;46.06;95212.97;5023192;28;20197;-71
2023/03/11 04:57:20;;;;;;;6.87;1.73;;;;;;;3.80;45.22;95210.72;5010529;28;20214;-67
2023/03/11 04:59:46;;;;;;;4.10;1.37;;;;;;;3.64;44.85;95205.25;5008548;28;20223;-70
2023/03/11 05:02:11;;;;;;;3.57;1.30;;;;;;;3.67;44.92;95207.72;5007496;28;20168;-69
2023/03/11 05:04:37;;;;;;;1.60;1.50;;;;;;;3.54;45.02;95207.34;5008108;28;20192;-69
2023/03/11 05:07:02;;;;;;;6.30;2.03;;;;;;;3.46;44.81;95214.53;5025038;28;20617;-70
2023/03/11 05:09:27;;;;;;;2.83;1.50;;;;;;;3.70;43.47;95224.94;5027733;28;20237;-70
2023/03/11 05:11:53;;;;;;;8.27;1.40;;;;;;;3.68;42.98;95219.78;5028776;28;20175;-71
2023/03/11 05:14:18;;;;;;;4.70;1.10;;;;;;;3.55;43.05;95224.56;5029831;28;20223;-69
2023/03/11 05:16:44;;;;;;;3.53;1.53;;;;;;;3.22;44.10;95225.75;5030649;28;20171;-72
2023/03/11 05:21:53;;;;;;;2.07;1.17;;;;;;;3.40;43.33;95230.28;5030926;28;20181;-70
2023/03/11 05:24:19;;;;;;;5.73;1.60;;;;;;;3.36;43.43;95233.91;5030595;28;20438;-70
2023/03/11 05:26:44;;;;;;;4.00;1.40;;;;;;;3.17;44.30;95237.13;5027664;28;20224;-67
2023/03/11 05:29:10;;;;;;;4.20;1.50;;;;;;;3.16;44.39;95238.00;5027643;28;20218;-68
2023/03/11 05:31:35;;;;;;;9.03;2.70;;;;;;;3.19;44.26;95237.09;5027477;28;20194;-68
2023/03/11 05:34:01;;;;;;;5.97;2.43;;;;;;;3.26;44.20;95233.38;5027163;28;20199;-69
2023/03/11 05:36:26;;;;;;;2.97;2.20;;;;;;;3.07;44.80;95247.84;5027459;28;20538;-70
2023/03/11 05:38:52;;;;;;;11.67;1.60;;;;;;;3.12;44.98;95253.72;5027556;28;20248;-69
2023/03/11 05:41:18;;;;;;;4.90;1.80;;;;;;;3.12;44.99;95257.16;5027434;28;20182;-69
2023/03/11 05:43:43;;;;;;;5.20;1.50;;;;;;;3.25;44.94;95255.00;5027425;28;20199;-69
2023/03/11 05:46:10;;;;;;;1.93;1.30;;;;;;;3.39;44.19;95260.56;5027288;28;20422;-69
2023/03/11 05:48:35;;;;;;;1.97;1.40;;;;;;;3.77;43.03;95265.31;5027720;28;20676;-67
2023/03/11 05:51:06;;;;;;;3.43;1.30;;;;;;;3.46;43.36;95258.63;5027491;28;20490;-68
2023/03/11 05:53:31;;;;;;;2.33;1.50;;;;;;;3.33;43.62;95270.28;5027257;28;20195;-68
2023/03/11 05:55:58;;;;;;;1.40;1.07;;;;;;;3.12;44.69;95270.13;5029298;28;20875;-71
2023/03/11 05:58:23;;;;;;;3.90;1.57;;;;;;;2.84;45.44;95267.59;5031032;28;20160;-71
2023/03/11 06:00:49;;;;;;;2.20;1.70;;;;;;;2.88;45.92;95270.91;5031305;28;20410;-70
2023/03/11 06:03:14;;;;;;;3.63;1.67;;;;;;;3.20;45.22;95262.09;5030750;28;20683;-69
2023/03/11 06:05:47;;;;;;;1.23;1.13;;;;;;;2.60;46.17;95266.63;5031128;28;20640;-68
2023/03/11 06:08:13;;;;;;;3.47;1.57;;;;;;;2.91;45.16;95263.91;5030644;28;20175;-71
2023/03/11 06:10:39;;;;;;;2.60;1.70;;;;;;;2.84;45.75;95265.00;5030938;28;20934;-72
2023/03/11 06:13:05;;;;;;;10.87;2.27;;;;;;;3.27;44.50;95260.97;5030565;28;20562;-68
2023/03/11 06:15:33;;;;;;;4.80;1.83;;;;;;;3.36;44.29;95268.47;5030682;28;20497;-69
2023/03/11 06:17:59;;;;;;;27.83;4.50;;;;;;;3.78;43.89;95267.88;5030624;28;20175;-70
2023/03/11 06:20:25;;;;;;;11.20;2.77;;;;;;;3.82;43.55;95266.00;5030075;28;20413;-71
2023/03/11 06:22:51;;;;;;;7.93;2.37;;;;;;;3.86;43.48;95258.97;5030744;28;20178;-69
2023/03/11 06:25:16;;;;;;;4.20;2.40;;;;;;;3.83;43.26;95267.72;5030478;28;20414;-69
2023/03/11 06:27:46;;;;;;;9.93;2.37;;;;;;;3.95;43.23;95264.66;5030314;28;20421;-69
2023/03/11 06:30:12;;;;;;;3.37;1.37;;;;;;;4.04;42.95;95268.69;5030273;28;20206;-69
2023/03/11 06:32:38;;;;;;;6.30;1.80;;;;;;;4.68;42.16;95273.22;5029982;28;20465;-71
2023/03/11 06:35:03;;;;;;;10.53;2.00;;;;;;;4.57;41.80;95275.38;5030308;28;20442;-70
2023/03/11 06:37:29;;;;;;;8.03;1.97;;;;;;;4.81;41.56;95281.38;5029767;28;20210;-71
2023/03/11 06:39:54;;;;;;;3.17;1.47;;;;;;;5.96;40.04;95273.19;5030001;28;20197;-70
2023/03/11 06:42:22;;;;;;;5.47;1.77;;;;;;;6.38;38.68;95279.97;5030110;28;20580;-69
2023/03/11 06:44:48;;;;;;;4.97;1.57;;;;;;;6.34;38.79;95284.50;5029482;28;20274;-71
2023/03/11 06:47:14;;;;;;;2.40;1.53;;;;;;;6.08;38.79;95291.72;5029773;28;20490;-70
2023/03/11 06:49:41;;;;;;;3.23;1.47;;;;;;;6.47;38.96;95300.41;5029726;28;21236;-70
2023/03/11 06:52:07;;;;;;;3.67;1.73;;;;;;;8.26;35.00;95294.25;5028405;28;20167;-71
2023/03/11 06:54:33;;;;;;;2.40;1.70;;;;;;;7.97;34.60;95297.53;5029457;28;20438;-70
2023/03/11 06:56:59;;;;;;;2.10;1.43;;;;;;;6.61;37.16;95295.41;5029304;28;20448;-70
2023/03/11 06:59:24;;;;;;;2.73;1.50;;;;;;;5.90;39.04;95302.88;5029715;28;20971;-69
2023/03/11 07:01:50;;;;;;;2.50;1.77;;;;;;;5.82;38.90;95305.00;5029951;28;20587;-69
2023/03/11 07:04:15;;;;;;;4.50;2.20;;;;;;;5.59;40.16;95301.59;5029430;28;20207;-69
2023/03/11 07:06:41;;;;;;;3.60;1.43;;;;;;;5.63;39.97;95313.56;5028164;28;20202;-69
2023/03/11 07:09:07;;;;;;;18.53;4.10;;;;;;;6.46;38.76;95319.56;5029453;28;20363;-69
2023/03/11 07:11:32;;;;;;;3.43;1.70;;;;;;;6.56;38.24;95323.44;5029508;28;20568;-70
2023/03/11 07:13:58;;;;;;;4.70;2.03;;;;;;;6.74;37.65;95330.44;5029313;28;20187;-70
2023/03/11 07:16:25;;;;;;;3.03;1.50;;;;;;;7.18;37.28;95324.03;5029004;28;20171;-69
2023/03/11 07:18:53;;;;;;;10.10;2.10;;;;;;;6.85;37.83;95327.34;5029307;28;20176;-72
2023/03/11 07:21:21;;;;;;;4.03;1.77;;;;;;;6.98;37.19;95331.06;5029327;28;20523;-70
2023/03/11 07:23:48;;;;;;;4.87;1.53;;;;;;;7.17;36.71;95328.41;5028836;28;20441;-69
2023/03/11 07:26:16;;;;;;;2.00;1.50;;;;;;;8.10;35.17;95335.16;5028698;28;20410;-69
2023/03/11 07:28:43;;;;;;;2.10;1.37;;;;;;;9.87;32.37;95326.38;5029227;28;20458;-69
2023/03/11 07:31:10;;;;;;;3.23;1.50;;;;;;;10.56;30.61;95327.56;5028905;28;20544;-70
2023/03/11 07:33:37;;;;;;;3.80;1.67;;;;;;;10.46;30.64;95313.31;5028853;28;21260;-71
2023/03/11 07:36:08;;;;;;;7.17;3.03;;;;;;;9.50;32.19;95319.81;5028539;28;20464;-71
2023/03/11 07:38:34;;;;;;;6.23;1.60;;;;;;;9.94;31.86;95308.53;5028760;28;20407;-71
2023/03/11 07:40:59;;;;;;;2.07;1.57;;;;;;;10.36;30.26;95318.25;5028753;28;20437;-69
2023/03/11 07:43:25;;;;;;;6.77;1.73;;;;;;;11.37;29.02;95315.53;5028529;28;20434;-69
2023/03/11 07:45:51;;;;;;;4.63;1.70;;;;;;;10.10;30.77;95334.69;5028097;28;20191;-69
2023/03/11 07:48:17;;;;;;;7.60;2.13;;;;;;;9.33;31.79;95347.81;5028384;28;20202;-70
2023/03/11 07:50:42;;;;;;;3.07;2.00;;;;;;;8.65;33.38;95349.78;5028331;28;20669;-71
2023/03/11 07:53:08;;;;;;;3.63;1.50;;;;;;;8.45;33.32;95345.59;5028313;28;20441;-69
2023/03/11 07:55:33;;;;;;;3.97;1.50;;;;;;;7.97;34.19;95348.00;5027928;28;20655;-70
2023/03/11 07:57:59;;;;;;;4.33;1.43;;;;;;;6.93;36.59;95351.28;5027844;28;20178;-71
2023/03/11 08:00:24;;;;;;;3.77;2.03;;;;;;;7.19;36.37;95364.88;5028067;28;20206;-71
2023/03/11 08:02:50;;;;;;;2.67;2.13;;;;;;;7.58;35.61;95356.03;5027883;28;20179;-69
2023/03/11 08:05:17;;;;;;;5.37;1.97;;;;;;;7.69;35.55;95351.16;5028156;28;20168;-70
2023/03/11 08:07:42;;;;;;;4.63;1.27;;;;;;;7.53;35.26;95365.88;5027798;28;20414;-71
2023/03/11 08:10:09;;;;;;;4.97;2.20;;;;;;;7.72;35.48;95360.59;5027876;28;20504;-71
2023/03/11 08:12:34;;;;;;;12.83;2.03;;;;;;;8.17;34.50;95362.69;5028131;28;20176;-70
2023/03/11 08:14:59;;;;;;;6.67;2.83;;;;;;;8.10;34.07;95366.50;5028129;28;20972;-69
2023/03/11 08:17:25;;;;;;;8.63;2.37;;;;;;;7.84;35.14;95373.03;5027689;28;20176;-70
2023/03/11 08:19:50;;;;;;;14.87;3.07;;;;;;;7.13;36.78;95381.66;5026549;28;20183;-70
2023/03/11 08:22:16;;;;;;;2.43;1.30;;;;;;;6.36;38.04;95373.88;5026266;28;20180;-71
2023/03/11 08:24:41;;;;;;;4.53;1.57;;;;;;;6.12;38.48;95378.38;5026265;28;20199;-70
2023/03/11 08:27:08;;;;;;;6.40;1.83;;;;;;;6.63;37.33;95370.94;5027223;28;20179;-72
2023/03/11 08:29:34;;;;;;;5.10;1.87;;;;;;;6.66;37.45;95370.78;5027338;28;20706;-72
2023/03/11 08:31:59;;;;;;;1.70;1.27;;;;;;;5.48;38.61;95390.53;5028528;28;20418;-69
2023/03/11 08:34:26;;;;;;;6.20;1.70;;;;;;;5.80;39.07;95397.91;5022913;28;20200;-69
2023/03/11 08:36:51;;;;;;;4.30;1.50;;;;;;;6.23;38.28;95403.97;5024165;28;20187;-69
2023/03/11 08:39:17;;;;;;;2.10;1.47;;;;;;;7.94;34.39;95399.59;5027495;28;20402;-70
2023/03/11 08:41:42;;;;;;;4.23;1.80;;;;;;;8.87;32.67;95386.94;5019407;28;20168;-71
2023/03/11 08:44:08;;;;;;;2.00;1.30;;;;;;;9.63;31.15;95382.81;5023599;28;20695;-70
2023/03/11 08:46:36;;;;;;;1.20;0.90;;;;;;;9.02;30.91;95382.63;5026738;28;20648;-71
2023/03/11 08:49:03;;;;;;;7.80;1.20;;;;;;;6.88;34.15;95381.13;5026631;28;20207;-69
2023/03/11 08:51:31;;;;;;;3.20;1.20;;;;;;;7.72;33.70;95387.53;5025745;28;20994;-70
2023/03/11 08:53:58;;;;;;;5.20;1.30;;;;;;;7.30;34.17;95398.28;5027312;28;20430;-70
2023/03/11 08:56:23;;;;;;;2.90;1.30;;;;;;;7.73;33.71;95399.69;5027100;28;20407;-71
2023/03/11 08:58:49;;;;;;;9.77;1.80;;;;;;;8.00;32.69;95396.66;5027554;28;20895;-71
2023/03/11 09:01:15;;;;;;;8.27;1.93;;;;;;;7.90;32.68;95395.41;5027429;28;20257;-69
2023/03/11 09:03:41;;;;;;;2.70;1.37;;;;;;;7.90;33.11;95392.81;5026807;28;20979;-70
2023/03/11 09:06:10;;;;;;;5.63;1.40;;;;;;;7.47;33.78;95393.13;5027248;28;20533;-70
2023/03/11 09:08:39;;;;;;;4.37;1.67;;;;;;;7.73;33.38;95391.03;5010105;28;20214;-70
2023/03/11 09:11:04;;;;;;;3.43;1.37;;;;;;;7.19;34.16;95393.59;5026841;28;20430;-71
2023/03/11 09:13:30;;;;;;;3.53;1.63;;;;;;;7.03;34.59;95398.66;5029274;28;20965;-71
2023/03/11 09:15:56;;;;;;;8.27;1.43;;;;;;;7.12;34.97;95402.63;5025594;28;20664;-69
2023/03/11 09:18:21;;;;;;;3.70;1.70;;;;;;;7.23;35.18;95408.19;5023678;28;20179;-72
2023/03/11 09:20:47;;;;;;;4.83;1.83;;;;;;;7.16;34.52;95410.22;5021532;28;20515;-70
2023/03/11 09:23:15;;;;;;;12.47;4.67;;;;;;;7.27;34.08;95414.09;5021644;28;20225;-70
2023/03/11 09:25:41;;;;;;;5.80;1.77;;;;;;;7.57;33.91;95417.03;5021763;28;20191;-70
2023/03/11 09:28:07;;;;;;;3.60;1.50;;;;;;;7.60;33.52;95420.31;5024520;28;20434;-70
2023/03/11 09:30:32;;;;;;;4.30;1.53;;;;;;;8.68;33.12;95423.69;5028249;28;20422;-69
2023/03/11 09:32:58;;;;;;;11.97;2.50;;;;;;;9.53;29.49;95411.31;5029276;28;20313;-68
2023/03/11 09:35:24;;;;;;;3.90;1.90;;;;;;;9.79;29.21;95415.06;5030607;28;20171;-70
2023/03/11 09:37:49;;;;;;;15.97;3.10;;;;;;;9.01;30.83;95416.75;5030413;28;20171;-68
2023/03/11 09:40:17;;;;;;;8.70;2.00;;;;;;;8.85;30.54;95428.03;5028593;28;20187;-68
2023/03/11 09:42:58;;;;;;;1.50;1.30;;;;;;;7.83;31.14;95421.81;5027187;28;20187;-70
2023/03/11 09:45:23;;;;;;;8.73;3.37;;;;;;;7.94;31.66;95428.31;5026965;28;21521;-68
2023/03/11 09:48:22;;;;;;;3.20;1.40;;;;;;;7.80;31.94;95431.59;5028849;28;20430;-69
2023/03/11 09:50:57;;;;;;;3.10;1.70;;;;;;;7.83;31.87;95441.88;5024864;28;20180;-72
2023/03/11 09:53:43;;;;;;;2.90;1.40;;;;;;;8.31;31.84;95429.06;5032024;28;20460;-70
2023/03/11 09:56:13;;;;;;;3.37;2.17;;;;;;;8.95;31.21;95431.00;5028848;28;20454;-69
2023/03/11 09:59:04;;;;;;;2.30;1.40;;;;;;;9.51;29.43;95426.25;5031151;28;20426;-69
2023/03/11 10:01:32;;;;;;;4.80;1.83;;;;;;;9.99;28.58;95424.41;5027756;28;20442;-69
2023/03/11 10:04:19;;;;;;;3.40;1.47;;;;;;;10.34;28.05;95435.53;5032350;28;20524;-67
2023/03/11 10:06:46;;;;;;;7.53;1.60;;;;;;;10.57;27.82;95433.34;5031891;28;20469;-69
2023/03/11 10:09:36;;;;;;;9.83;2.43;;;;;;;10.37;28.29;95437.97;5031124;28;21060;-70
2023/03/11 10:12:30;;;;;;;11.00;2.90;;;;;;;10.94;27.35;95433.75;5027531;28;20484;-69
2023/03/11 10:15:23;;;;;;;19.97;4.97;;;;;;;11.56;25.98;95426.38;5029771;28;20460;-69
2023/03/11 10:18:01;;;;;;;2.33;1.30;;;;;;;10.69;26.54;95424.72;5033439;28;20429;-70
2023/03/11 10:20:37;;;;;;;4.27;1.70;;;;;;;11.30;26.80;95421.94;5021208;28;20514;-70
2023/03/11 10:23:37;;;;;;;3.80;1.20;;;;;;;10.87;26.92;95417.53;5021731;28;20497;-70
2023/03/11 10:26:26;;;;;;;6.93;1.87;;;;;;;10.26;28.03;95437.72;5023297;28;20450;-70
2023/03/11 10:28:57;;;;;;;4.87;1.90;;;;;;;9.79;29.19;95437.81;5022041;28;20926;-68
2023/03/11 10:31:36;;;;;;;3.67;1.80;;;;;;;9.59;29.21;95437.16;5027875;28;20442;-67
2023/03/11 10:34:14;;;;;;;9.67;1.73;;;;;;;9.77;28.77;95432.66;5026403;28;20465;-72
2023/03/11 10:36:52;;;;;;;2.20;1.50;;;;;;;10.34;28.00;95438.13;5025395;28;20441;-68
2023/03/11 10:39:18;;;;;;;2.00;1.40;;;;;;;10.67;26.87;95439.72;5023035;28;20402;-70
2023/03/11 10:41:56;;;;;;;12.70;2.43;;;;;;;11.37;26.40;95416.19;5028394;28;21372;-69
2023/03/11 10:44:26;;;;;;;3.13;2.07;;;;;;;11.71;25.98;95418.44;5027770;28;20556;-70
2023/03/11 10:46:51;;;;;;;6.60;1.73;;;;;;;11.96;25.57;95417.75;5032654;28;20449;-69
2023/03/11 10:49:17;;;;;;;3.23;1.43;;;;;;;11.98;25.26;95419.34;5027758;28;20462;-68
2023/03/11 10:51:47;;;;;;;2.80;1.43;;;;;;;12.03;24.97;95425.13;5032170;28;20195;-70
2023/03/11 10:54:31;;;;;;;2.23;1.40;;;;;;;11.60;25.58;95422.63;5033202;28;20859;-69
2023/03/11 10:57:18;;;;;;;15.50;2.43;;;;;;;11.71;25.94;95423.72;5031057;28;20446;-69
2023/03/11 10:59:49;;;;;;;4.83;1.73;;;;;;;11.50;25.91;95424.13;5027166;28;20441;-68
2023/03/11 11:02:27;;;;;;;3.40;1.30;;;;;;;10.65;26.19;95431.09;5027082;28;21102;-69
2023/03/11 11:05:26;;;;;;;4.50;1.60;;;;;;;10.72;27.35;95421.06;5028464;28;20454;-69
2023/03/11 11:08:02;;;;;;;3.50;1.20;;;;;;;11.02;26.17;95411.34;5026682;28;20443;-71
2023/03/11 11:10:29;;;;;;;2.87;1.00;;;;;;;11.10;24.99;95408.25;5022570;28;20469;-71
2023/03/11 11:13:12;;;;;;;2.50;1.30;;;;;;;10.58;26.34;95419.25;5033577;28;20470;-67
2023/03/11 11:15:41;;;;;;;3.33;1.47;;;;;;;10.21;26.89;95423.19;5030960;28;20478;-69
2023/03/11 11:18:21;;;;;;;8.00;1.70;;;;;;;9.94;27.74;95426.47;5032865;28;20990;-69
2023/03/11 11:20:57;;;;;;;6.13;1.70;;;;;;;10.46;27.24;95420.84;5034920;28;20433;-70
2023/03/11 11:23:31;;;;;;;9.03;3.40;;;;;;;10.97;26.43;95415.19;5033952;28;20449;-69
2023/03/11 11:26:01;;;;;;;5.70;1.87;;;;;;;11.26;25.74;95415.16;5031295;28;20430;-70
2023/03/11 11:28:27;;;;;;;2.80;1.80;;;;;;;11.05;25.70;95406.84;5025053;28;20552;-70
2023/03/11 11:31:02;;;;;;;7.10;1.67;;;;;;;9.59;28.24;95423.19;5023243;28;20434;-69
2023/03/11 11:33:37;;;;;;;9.13;3.03;;;;;;;10.03;27.78;95417.22;5025680;28;20457;-69
2023/03/11 11:36:05;;;;;;;2.53;1.60;;;;;;;10.35;27.29;95418.03;5018396;28;20871;-71
2023/03/11 11:38:31;;;;;;;16.13;4.10;;;;;;;10.78;26.76;95416.31;5027966;28;20468;-70
2023/03/11 11:41:00;;;;;;;6.33;2.27;;;;;;;10.96;26.29;95402.97;5028402;28;20440;-68
2023/03/11 11:43:41;;;;;;;5.93;1.60;;;;;;;11.08;25.90;95412.75;5024331;28;20465;-69
2023/03/11 11:46:17;;;;;;;3.30;1.40;;;;;;;11.09;25.37;95418.84;5025016;28;20981;-70